createdAt,value
2023-05-21T00:01:32.745Z,8.73
2023-05-21T00:04:00.708Z,8.90
2023-05-21T00:06:28.492Z,8.60
2023-05-21T00:08:56.144Z,11.80
2023-05-21T00:11:24.061Z,9.25
2023-05-21T00:13:51.564Z,9.38
2023-05-21T00:16:20.509Z,8.68
2023-05-21T00:18:49.688Z,11.32
2023-05-21T00:21:17.715Z,9.15
2023-05-21T00:23:45.668Z,9.13
2023-05-21T00:26:13.160Z,10.35
2023-05-21T00:28:40.663Z,8.68
2023-05-21T00:31:08.348Z,9.43
2023-05-21T00:33:37.320Z,8.98
2023-05-21T00:36:06.060Z,11.05
2023-05-21T00:38:33.768Z,8.45
2023-05-21T00:41:02.657Z,8.82
2023-05-21T00:43:30.165Z,9.68
2023-05-21T00:45:58.311Z,10.10
2023-05-21T00:48:26.107Z,8.55
2023-05-21T00:50:56.558Z,10.00
2023-05-21T00:53:24.260Z,9.52
2023-05-21T00:55:52.204Z,9.98
2023-05-21T00:58:19.821Z,8.77
2023-05-21T01:00:48.101Z,10.48
2023-05-21T01:03:16.420Z,9.98
2023-05-21T01:05:45.051Z,9.13
2023-05-21T01:08:14.951Z,9.93
2023-05-21T01:10:42.696Z,9.70
2023-05-21T01:13:10.720Z,10.40
2023-05-21T01:15:39.011Z,8.70
2023-05-21T01:18:07.701Z,10.40
2023-05-21T01:20:35.358Z,13.75
2023-05-21T01:23:04.569Z,10.05
2023-05-21T01:25:32.178Z,9.90
2023-05-21T01:27:59.696Z,10.10
2023-05-21T01:30:27.878Z,10.25
2023-05-21T01:33:03.223Z,9.65
2023-05-21T01:35:34.678Z,12.48
2023-05-21T01:38:10.592Z,13.00
2023-05-21T01:40:46.438Z,10.40
2023-05-21T01:43:15.751Z,10.10
2023-05-21T01:45:44.926Z,9.30
2023-05-21T01:48:13.770Z,10.68
2023-05-21T01:50:43.043Z,11.77
2023-05-21T01:53:11.938Z,11.48
2023-05-21T01:55:42.041Z,10.30
2023-05-21T01:58:09.974Z,10.75
2023-05-21T02:00:37.525Z,10.30
2023-05-21T02:03:05.333Z,11.68
2023-05-21T02:05:32.897Z,10.68
2023-05-21T02:08:01.424Z,10.85
2023-05-21T02:10:30.469Z,10.32
2023-05-21T02:12:59.290Z,9.90
2023-05-21T02:15:27.088Z,10.05
2023-05-21T02:17:55.576Z,10.45
2023-05-21T02:20:24.179Z,11.77
2023-05-21T02:22:51.691Z,11.38
2023-05-21T02:25:20.639Z,11.60
2023-05-21T02:27:52.766Z,11.20
2023-05-21T02:30:20.917Z,11.00
2023-05-21T02:32:49.837Z,13.88
2023-05-21T02:35:17.819Z,11.05
2023-05-21T02:37:45.446Z,11.30
2023-05-21T02:40:13.594Z,11.48
2023-05-21T02:42:41.826Z,11.15
2023-05-21T02:45:12.443Z,10.60
2023-05-21T02:47:40.835Z,11.32
2023-05-21T02:50:09.743Z,11.35
2023-05-21T02:52:37.253Z,11.52
2023-05-21T02:55:05.306Z,11.40
2023-05-21T02:57:32.790Z,12.38
2023-05-21T03:00:00.354Z,13.00
2023-05-21T03:02:30.225Z,11.93
2023-05-21T03:04:58.686Z,11.73
2023-05-21T03:07:26.219Z,11.38
2023-05-21T03:09:53.751Z,11.45
2023-05-21T03:12:21.299Z,12.52
2023-05-21T03:14:51.238Z,12.30
2023-05-21T03:17:18.945Z,12.68
2023-05-21T03:19:49.036Z,12.18
2023-05-21T03:22:16.620Z,12.10
2023-05-21T03:24:45.147Z,12.00
2023-05-21T03:27:12.665Z,11.73
2023-05-21T03:29:40.503Z,11.70
2023-05-21T03:32:08.851Z,12.20
2023-05-21T03:34:36.568Z,12.95
2023-05-21T03:37:05.704Z,12.65
2023-05-21T03:39:33.235Z,13.60
2023-05-21T03:42:00.747Z,20.70
2023-05-21T03:44:29.543Z,12.40
2023-05-21T03:46:57.111Z,14.25
2023-05-21T03:49:24.649Z,13.50
2023-05-21T03:51:52.182Z,16.25
2023-05-21T03:54:21.047Z,13.27
2023-05-21T03:56:48.673Z,13.30
2023-05-21T03:59:16.195Z,13.73
2023-05-21T04:01:45.280Z,11.98
2023-05-21T04:04:12.995Z,14.02
2023-05-21T04:06:42.284Z,13.63
2023-05-21T04:09:09.758Z,12.85
2023-05-21T04:11:38.591Z,14.05
2023-05-21T04:14:06.209Z,13.18
2023-05-21T04:16:35.521Z,12.70
2023-05-21T04:19:03.093Z,12.82
2023-05-21T04:21:31.878Z,14.93
2023-05-21T04:24:00.744Z,11.52
2023-05-21T04:26:29.478Z,12.85
2023-05-21T04:28:59.373Z,12.18
2023-05-21T04:31:26.966Z,14.02
2023-05-21T04:33:54.582Z,11.70
2023-05-21T04:36:22.133Z,14.27
2023-05-21T04:38:49.796Z,10.40
2023-05-21T04:41:18.770Z,10.48
2023-05-21T04:43:46.302Z,12.45
2023-05-21T04:46:15.206Z,11.07
2023-05-21T04:48:42.724Z,9.45
2023-05-21T04:51:10.238Z,10.45
2023-05-21T04:53:38.757Z,9.50
2023-05-21T04:56:07.325Z,8.88
2023-05-21T04:58:34.864Z,8.75
2023-05-21T05:01:03.276Z,9.95
2023-05-21T05:03:32.314Z,9.15
2023-05-21T05:05:59.861Z,9.25
2023-05-21T05:08:27.389Z,9.60
2023-05-21T05:10:54.904Z,9.73
2023-05-21T05:13:22.429Z,13.07
2023-05-21T05:15:51.019Z,9.65
2023-05-21T05:18:19.531Z,10.57
2023-05-21T05:20:48.360Z,9.48
2023-05-21T05:23:16.117Z,9.32
2023-05-21T05:25:43.662Z,10.57
2023-05-21T05:28:11.163Z,9.93
2023-05-21T05:30:38.731Z,9.07
2023-05-21T05:33:06.328Z,11.02
2023-05-21T05:35:33.914Z,9.52
2023-05-21T05:38:03.118Z,8.55
2023-05-21T05:40:30.699Z,9.98
2023-05-21T05:42:58.235Z,10.05
2023-05-21T05:45:26.694Z,8.82
2023-05-21T05:47:54.254Z,8.95
2023-05-21T05:50:22.182Z,9.38
2023-05-21T05:52:49.671Z,9.20
2023-05-21T05:55:18.556Z,9.73
2023-05-21T05:57:46.308Z,9.32
2023-05-21T06:00:14.814Z,8.73
2023-05-21T06:02:42.623Z,9.18
2023-05-21T06:05:11.159Z,11.52
2023-05-21T06:07:39.557Z,8.30
2023-05-21T06:10:07.720Z,8.45
2023-05-21T06:12:36.854Z,9.98
2023-05-21T06:15:04.976Z,10.32
2023-05-21T06:17:32.679Z,8.88
2023-05-21T06:20:00.239Z,9.75
2023-05-21T06:22:27.744Z,8.98
2023-05-21T06:24:55.242Z,8.30
2023-05-21T06:27:22.735Z,9.18
2023-05-21T06:29:51.722Z,8.68
2023-05-21T06:32:21.303Z,8.10
2023-05-21T06:34:48.858Z,10.23
2023-05-21T06:37:20.714Z,8.95
2023-05-21T06:39:48.493Z,9.07
2023-05-21T06:42:16.075Z,8.30
2023-05-21T06:44:43.633Z,9.23
2023-05-21T06:47:12.541Z,10.27
2023-05-21T06:49:40.056Z,10.95
2023-05-21T06:52:07.987Z,8.57
2023-05-21T06:54:35.543Z,8.45
2023-05-21T06:57:03.036Z,8.55
2023-05-21T06:59:30.587Z,8.35
2023-05-21T07:01:58.124Z,8.07
2023-05-21T07:04:26.961Z,8.60
2023-05-21T07:06:54.531Z,9.02
2023-05-21T07:09:22.019Z,8.00
2023-05-21T07:11:49.525Z,8.93
2023-05-21T07:14:17.044Z,12.02
2023-05-21T07:16:44.647Z,8.85
2023-05-21T07:19:12.181Z,9.85
2023-05-21T07:21:41.021Z,7.43
2023-05-21T07:24:08.549Z,9.65
2023-05-21T07:26:36.079Z,7.82
2023-05-21T07:29:03.599Z,10.35
2023-05-21T07:31:31.203Z,9.60
2023-05-21T07:33:58.717Z,8.73
2023-05-21T07:36:27.165Z,8.88
2023-05-21T07:38:56.258Z,9.18
2023-05-21T07:41:23.761Z,8.35
2023-05-21T07:43:51.421Z,10.65
2023-05-21T07:46:18.946Z,8.85
2023-05-21T07:48:46.530Z,9.23
2023-05-21T07:51:14.056Z,8.52
2023-05-21T07:53:41.623Z,10.07
2023-05-21T07:56:10.718Z,9.02
2023-05-21T07:58:38.248Z,8.70
2023-05-21T08:01:06.217Z,8.57
2023-05-21T08:03:33.918Z,8.65
2023-05-21T08:06:01.712Z,9.48
2023-05-21T08:08:29.234Z,11.50
2023-05-21T08:10:57.066Z,8.10
2023-05-21T08:13:25.946Z,7.78
2023-05-21T08:15:53.827Z,8.65
2023-05-21T08:18:23.716Z,8.27
2023-05-21T08:20:51.649Z,8.15
2023-05-21T08:23:19.162Z,7.53
2023-05-21T08:25:46.790Z,9.82
2023-05-21T08:28:14.359Z,8.13
2023-05-21T08:30:43.211Z,7.25
2023-05-21T08:33:10.785Z,9.18
2023-05-21T08:35:38.574Z,9.20
2023-05-21T08:38:06.304Z,7.35
2023-05-21T08:40:34.078Z,6.82
2023-05-21T08:43:02.162Z,8.32
2023-05-21T08:45:37.759Z,7.60
2023-05-21T08:48:09.897Z,7.53
2023-05-21T08:50:37.530Z,7.40
2023-05-21T08:53:15.818Z,6.70
2023-05-21T08:55:57.083Z,7.72
2023-05-21T08:58:24.832Z,10.27
2023-05-21T09:00:52.427Z,10.75
2023-05-21T09:03:22.306Z,8.80
2023-05-21T09:05:51.146Z,7.97
2023-05-21T09:08:20.467Z,7.72
2023-05-21T09:10:51.211Z,7.13
2023-05-21T09:13:19.439Z,7.10
2023-05-21T09:15:47.897Z,8.05
2023-05-21T09:18:15.616Z,7.38
2023-05-21T09:20:45.324Z,7.03
2023-05-21T09:23:16.927Z,8.18
2023-05-21T09:25:47.435Z,8.57
2023-05-21T09:28:16.409Z,7.13
2023-05-21T09:30:47.586Z,7.03
2023-05-21T09:33:25.927Z,24.33
2023-05-21T09:35:55.068Z,7.25
2023-05-21T09:38:23.618Z,7.00
2023-05-21T09:40:51.221Z,7.13
2023-05-21T09:43:19.226Z,6.40
2023-05-21T09:45:53.556Z,7.15
2023-05-21T09:48:35.466Z,6.82
2023-05-21T09:51:12.726Z,6.43
2023-05-21T09:53:52.232Z,6.38
2023-05-21T09:56:24.829Z,6.50
2023-05-21T09:58:54.578Z,7.00
2023-05-21T10:01:22.410Z,6.43
2023-05-21T10:03:54.899Z,6.32
2023-05-21T10:06:25.794Z,6.53
2023-05-21T10:08:55.890Z,7.20
2023-05-21T10:11:26.374Z,12.02
2023-05-21T10:13:58.699Z,7.32
2023-05-21T10:16:26.624Z,6.45
2023-05-21T10:18:57.561Z,8.10
2023-05-21T10:21:27.782Z,8.00
2023-05-21T10:23:57.346Z,7.00
2023-05-21T10:26:26.339Z,12.77
2023-05-21T10:28:55.997Z,7.85
2023-05-21T10:31:24.013Z,5.97
2023-05-21T10:33:54.133Z,6.88
2023-05-21T10:36:21.887Z,6.25
2023-05-21T10:38:50.775Z,6.75
2023-05-21T10:41:20.956Z,6.72
2023-05-21T10:44:05.502Z,8.00
2023-05-21T10:47:06.968Z,13.45
2023-05-21T10:50:00.083Z,9.40
2023-05-21T10:52:40.117Z,9.50
2023-05-21T10:55:24.314Z,10.63
2023-05-21T10:58:13.239Z,6.38
2023-05-21T11:00:40.959Z,7.57
2023-05-21T11:03:09.424Z,6.53
2023-05-21T11:05:42.029Z,8.40
2023-05-21T11:08:23.214Z,6.80
2023-05-21T11:10:57.837Z,7.50
2023-05-21T11:13:26.426Z,11.52
2023-05-21T11:16:07.965Z,7.18
2023-05-21T11:19:01.128Z,7.15
2023-05-21T11:21:34.678Z,5.28
2023-05-21T11:24:04.468Z,6.10
2023-05-21T11:27:04.636Z,7.47
2023-05-21T11:29:41.314Z,5.72
2023-05-21T11:32:10.162Z,7.03
2023-05-21T11:34:39.613Z,6.55
2023-05-21T11:37:30.519Z,6.05
2023-05-21T11:39:59.618Z,6.88
2023-05-21T11:42:36.199Z,16.73
2023-05-21T11:45:04.772Z,7.05
2023-05-21T11:47:33.108Z,5.93
2023-05-21T11:50:01.883Z,7.32
2023-05-21T11:52:30.397Z,6.35
2023-05-21T11:54:59.850Z,5.75
2023-05-21T11:57:31.022Z,5.38
2023-05-21T12:00:01.637Z,5.35
2023-05-21T12:02:33.243Z,8.70
2023-05-21T12:05:01.131Z,12.18
2023-05-21T12:07:31.185Z,5.93
2023-05-21T12:09:59.409Z,6.07
2023-05-21T12:12:33.084Z,8.32
2023-05-21T12:15:13.162Z,5.80
2023-05-21T12:17:41.082Z,6.78
2023-05-21T12:20:10.681Z,10.65
2023-05-21T12:22:43.916Z,12.80
2023-05-21T12:25:12.308Z,6.85
2023-05-21T12:27:42.010Z,7.82
2023-05-21T12:30:11.473Z,5.82
2023-05-21T12:32:42.760Z,9.25
2023-05-21T12:35:10.921Z,5.38
2023-05-21T12:37:38.507Z,7.35
2023-05-21T12:40:08.894Z,5.90
2023-05-21T12:42:40.004Z,5.72
2023-05-21T12:45:08.917Z,5.65
2023-05-21T12:47:38.443Z,6.47
2023-05-21T12:50:11.733Z,7.75
2023-05-21T12:52:41.123Z,5.35
2023-05-21T12:55:10.398Z,5.05
2023-05-21T12:57:39.393Z,6.28
2023-05-21T13:00:08.873Z,6.32
2023-05-21T13:02:40.371Z,5.90
2023-05-21T13:05:09.537Z,7.82
2023-05-21T13:07:38.504Z,5.75
2023-05-21T13:10:08.160Z,5.68
2023-05-21T13:12:35.754Z,6.10
2023-05-21T13:15:05.399Z,5.10
2023-05-21T13:17:33.282Z,6.18
2023-05-21T13:20:10.205Z,6.38
2023-05-21T13:22:42.216Z,6.40
2023-05-21T13:25:10.974Z,5.68
2023-05-21T13:27:38.830Z,9.80
2023-05-21T13:30:07.664Z,6.90
2023-05-21T13:32:35.558Z,7.78
2023-05-21T13:35:03.137Z,6.70
2023-05-21T13:37:32.202Z,5.72
2023-05-21T13:39:59.694Z,6.50
2023-05-21T13:42:27.183Z,5.30
2023-05-21T13:44:54.685Z,6.35
2023-05-21T13:47:22.213Z,8.45
2023-05-21T13:49:49.708Z,6.57
2023-05-21T13:52:17.257Z,5.03
2023-05-21T13:54:46.131Z,5.43
2023-05-21T13:57:13.818Z,11.70
2023-05-21T13:59:41.605Z,5.75
2023-05-21T14:02:10.305Z,6.65
2023-05-21T14:04:39.301Z,5.15
2023-05-21T14:07:07.699Z,5.88
2023-05-21T14:09:35.772Z,5.47
2023-05-21T14:12:06.424Z,5.72
2023-05-21T14:14:34.329Z,5.10
2023-05-21T14:17:01.913Z,5.72
2023-05-21T14:19:29.559Z,5.90
2023-05-21T14:21:57.667Z,6.20
2023-05-21T14:24:25.162Z,5.72
2023-05-21T14:26:52.675Z,7.40
2023-05-21T14:29:21.521Z,6.97
2023-05-21T14:31:49.083Z,5.28
2023-05-21T14:34:16.632Z,5.95
2023-05-21T14:36:44.132Z,6.13
2023-05-21T14:39:11.631Z,6.68
2023-05-21T14:41:39.724Z,5.88
2023-05-21T14:44:07.530Z,5.55
2023-05-21T14:46:36.776Z,8.85
2023-05-21T14:49:04.426Z,6.68
2023-05-21T14:51:32.368Z,5.47
2023-05-21T14:53:59.909Z,5.28
2023-05-21T14:56:28.088Z,4.65
2023-05-21T14:58:55.843Z,5.55
2023-05-21T15:01:23.479Z,9.68
2023-05-21T15:03:52.523Z,5.53
2023-05-21T15:06:20.072Z,5.20
2023-05-21T15:08:47.603Z,5.53
2023-05-21T15:11:15.113Z,8.50
2023-05-21T15:13:42.617Z,5.13
2023-05-21T15:16:10.141Z,5.97
2023-05-21T15:18:37.723Z,8.23
2023-05-21T15:21:07.118Z,5.10
2023-05-21T15:23:34.622Z,5.68
2023-05-21T15:26:02.117Z,5.22
2023-05-21T15:28:29.612Z,6.50
2023-05-21T15:30:57.247Z,5.18
2023-05-21T15:33:24.737Z,5.25
2023-05-21T15:35:52.282Z,5.93
2023-05-21T15:38:21.109Z,7.20
2023-05-21T15:40:48.636Z,5.25
2023-05-21T15:43:16.192Z,5.45
2023-05-21T15:45:43.708Z,5.00
2023-05-21T15:48:12.348Z,5.75
2023-05-21T15:50:40.032Z,4.93
2023-05-21T15:53:07.539Z,4.85
2023-05-21T15:55:36.494Z,5.28
2023-05-21T15:58:04.598Z,4.57
2023-05-21T16:00:32.105Z,5.15
2023-05-21T16:02:59.724Z,4.93
2023-05-21T16:05:27.430Z,5.38
2023-05-21T16:07:54.921Z,5.53
2023-05-21T16:10:22.889Z,5.30
2023-05-21T16:12:51.759Z,5.38
2023-05-21T16:15:19.265Z,6.20
2023-05-21T16:17:47.149Z,5.50
2023-05-21T16:20:14.956Z,4.93
2023-05-21T16:22:42.450Z,8.80
2023-05-21T16:25:10.425Z,5.25
2023-05-21T16:27:37.931Z,5.78
2023-05-21T16:30:08.340Z,5.75
2023-05-21T16:32:35.939Z,5.18
2023-05-21T16:35:03.659Z,6.22
2023-05-21T16:37:31.140Z,5.10
2023-05-21T16:39:58.669Z,4.78
2023-05-21T16:42:26.391Z,5.43
2023-05-21T16:44:53.910Z,7.47
2023-05-21T16:47:22.822Z,5.68
2023-05-21T16:49:50.330Z,6.28
2023-05-21T16:52:17.824Z,5.60
2023-05-21T16:54:48.635Z,4.97
2023-05-21T16:57:16.415Z,5.13
2023-05-21T16:59:44.410Z,5.63
2023-05-21T17:02:13.382Z,4.72
2023-05-21T17:04:42.301Z,5.25
2023-05-21T17:07:09.840Z,5.80
2023-05-21T17:09:37.370Z,6.35
2023-05-21T17:12:05.441Z,5.15
2023-05-21T17:14:34.849Z,6.13
2023-05-21T17:17:02.527Z,6.85
2023-05-21T17:19:30.179Z,4.85
2023-05-21T17:21:59.277Z,5.25
2023-05-21T17:24:26.777Z,4.97
2023-05-21T17:26:54.567Z,5.28
2023-05-21T17:29:22.074Z,6.15
2023-05-21T17:31:49.722Z,8.00
2023-05-21T17:34:17.954Z,5.93
2023-05-21T17:36:45.493Z,5.38
2023-05-21T17:39:14.361Z,6.72
2023-05-21T17:41:41.899Z,5.10
2023-05-21T17:44:11.320Z,8.68
2023-05-21T17:46:38.855Z,5.20
2023-05-21T17:49:07.399Z,4.60
2023-05-21T17:51:35.014Z,5.13
2023-05-21T17:54:02.546Z,5.47
2023-05-21T17:56:34.241Z,6.07
2023-05-21T17:59:01.734Z,6.65
2023-05-21T18:01:29.382Z,5.25
2023-05-21T18:03:57.038Z,5.18
2023-05-21T18:06:26.138Z,6.22
2023-05-21T18:08:53.638Z,7.25
2023-05-21T18:11:21.470Z,5.60
2023-05-21T18:13:50.449Z,5.13
2023-05-21T18:16:18.519Z,6.85
2023-05-21T18:18:46.134Z,6.53
2023-05-21T18:21:14.018Z,7.38
2023-05-21T18:23:41.540Z,8.68
2023-05-21T18:26:09.061Z,8.82
2023-05-21T18:28:36.612Z,7.30
2023-05-21T18:31:05.587Z,5.32
2023-05-21T18:33:33.071Z,5.25
2023-05-21T18:36:00.577Z,6.05
2023-05-21T18:38:28.233Z,6.95
2023-05-21T18:40:55.757Z,5.28
2023-05-21T18:43:23.281Z,7.25
2023-05-21T18:45:50.815Z,6.50
2023-05-21T18:48:19.622Z,6.32
2023-05-21T18:50:47.124Z,6.40
2023-05-21T18:53:14.621Z,7.38
2023-05-21T18:55:42.369Z,7.95
2023-05-21T18:58:10.077Z,6.53
2023-05-21T19:00:39.424Z,6.60
2023-05-21T19:03:07.137Z,6.82
2023-05-21T19:05:37.749Z,7.75
2023-05-21T19:08:05.899Z,8.73
2023-05-21T19:10:33.418Z,8.70
2023-05-21T19:13:00.995Z,8.80
2023-05-21T19:15:28.493Z,8.60
2023-05-21T19:17:56.016Z,7.97
2023-05-21T19:20:24.774Z,7.60
2023-05-21T19:22:53.815Z,7.78
2023-05-21T19:25:21.452Z,7.78
2023-05-21T19:27:49.008Z,8.07
2023-05-21T19:30:16.674Z,8.63
2023-05-21T19:32:44.211Z,8.95
2023-05-21T19:35:12.071Z,8.20
2023-05-21T19:37:39.782Z,7.70
2023-05-21T19:40:10.185Z,8.85
2023-05-21T19:42:37.777Z,9.43
2023-05-21T19:45:09.279Z,9.20
2023-05-21T19:47:36.936Z,8.85
2023-05-21T19:50:05.061Z,8.77
2023-05-21T19:52:32.588Z,8.00
2023-05-21T19:55:04.434Z,8.88
2023-05-21T19:57:33.361Z,8.52
2023-05-21T20:00:00.906Z,8.43
2023-05-21T20:02:29.134Z,8.95
2023-05-21T20:04:58.698Z,9.00
2023-05-21T20:07:26.203Z,9.10
2023-05-21T20:09:53.706Z,7.90
2023-05-21T20:12:21.192Z,9.25
2023-05-21T20:14:50.076Z,9.98
2023-05-21T20:17:18.811Z,9.38
2023-05-21T20:19:47.930Z,9.63
2023-05-21T20:22:15.963Z,8.65
2023-05-21T20:24:43.726Z,10.07
2023-05-21T20:27:11.252Z,10.60
2023-05-21T20:29:38.767Z,7.90
2023-05-21T20:32:08.183Z,8.05
2023-05-21T20:37:05.155Z,7.32
2023-05-21T20:39:32.652Z,8.75
2023-05-21T20:42:00.986Z,7.45
2023-05-21T20:44:29.237Z,8.95
2023-05-21T20:46:56.857Z,10.85
2023-05-21T20:49:25.866Z,8.43
2023-05-21T20:51:56.673Z,8.48
2023-05-21T20:54:24.316Z,9.68
2023-05-21T20:56:54.800Z,9.63
2023-05-21T20:59:22.277Z,8.23
2023-05-21T21:01:50.787Z,8.95
2023-05-21T21:04:18.973Z,8.68
2023-05-21T21:06:48.235Z,9.00
2023-05-21T21:09:15.708Z,9.00
2023-05-21T21:11:43.236Z,12.18
2023-05-21T21:14:13.828Z,9.32
2023-05-21T21:16:41.529Z,9.02
2023-05-21T21:19:09.151Z,10.18
2023-05-21T21:21:36.755Z,8.98
2023-05-21T21:24:06.724Z,10.32
2023-05-21T21:26:34.239Z,9.32
2023-05-21T21:29:01.745Z,8.63
2023-05-21T21:31:30.083Z,9.02
2023-05-21T21:33:57.822Z,8.68
2023-05-21T21:36:25.454Z,8.70
2023-05-21T21:38:52.943Z,11.88
2023-05-21T21:41:22.409Z,9.02
2023-05-21T21:43:51.566Z,9.05
2023-05-21T21:46:19.361Z,7.90
2023-05-21T21:48:46.888Z,9.00
2023-05-21T21:51:15.557Z,8.50
2023-05-21T21:53:43.062Z,8.23
2023-05-21T21:56:10.974Z,8.70
2023-05-21T21:58:39.824Z,12.90
2023-05-21T22:01:07.440Z,9.13
2023-05-21T22:03:35.201Z,9.90
2023-05-21T22:06:02.927Z,9.35
2023-05-21T22:08:30.397Z,12.18
2023-05-21T22:10:58.814Z,9.65
2023-05-21T22:13:28.501Z,11.52
2023-05-21T22:15:58.315Z,10.35
2023-05-21T22:18:39.682Z,9.10
2023-05-21T22:21:09.285Z,9.82
2023-05-21T22:23:37.264Z,10.23
2023-05-21T22:26:04.909Z,9.88
2023-05-21T22:28:32.422Z,9.60
2023-05-21T22:31:01.302Z,9.15
2023-05-21T22:33:29.127Z,8.77
2023-05-21T22:35:56.748Z,9.98
2023-05-21T22:38:24.336Z,9.18
2023-05-21T22:40:51.856Z,9.10
2023-05-21T22:43:19.409Z,8.93
2023-05-21T22:45:46.938Z,8.18
2023-05-21T22:48:18.119Z,8.85
2023-05-21T22:50:46.093Z,8.02
2023-05-21T22:53:13.838Z,8.63
2023-05-21T22:55:41.366Z,8.32
2023-05-21T22:58:08.901Z,8.75
2023-05-21T23:00:37.215Z,8.75
2023-05-21T23:03:05.247Z,10.55
2023-05-21T23:05:34.265Z,9.32
2023-05-21T23:08:01.839Z,9.73
2023-05-21T23:10:29.335Z,10.45
2023-05-21T23:12:56.855Z,11.25
2023-05-21T23:15:24.364Z,11.10
2023-05-21T23:17:51.907Z,11.18
2023-05-21T23:20:21.568Z,10.73
2023-05-21T23:22:50.434Z,11.90
2023-05-21T23:25:18.114Z,10.43
2023-05-21T23:27:45.850Z,11.25
2023-05-21T23:30:13.751Z,12.25
2023-05-21T23:32:41.320Z,10.10
2023-05-21T23:35:10.347Z,11.13
2023-05-21T23:37:37.862Z,12.88
2023-05-21T23:40:08.329Z,10.15
2023-05-21T23:42:36.023Z,10.30
2023-05-21T23:45:03.634Z,10.63
2023-05-21T23:47:31.135Z,10.48
2023-05-21T23:49:58.624Z,11.25
2023-05-21T23:52:26.319Z,10.73
2023-05-21T23:54:53.819Z,10.55
2023-05-21T23:57:22.646Z,10.40
2023-05-21T23:59:50.160Z,10.30
